sensor_id;sensor_type;location;lat;lon;timestamp;P1;durP1;ratioP1;P2;durP2;ratioP2
14528;SDS011;7351;51.194;4.098;2023-03-01T00:01:07;4.83;;;4.47;;
14528;SDS011;7351;51.194;4.098;2023-03-01T00:03:35;4.73;;;4.43;;
14528;SDS011;7351;51.194;4.098;2023-03-01T00:06:03;4.83;;;4.53;;
14528;SDS011;7351;51.194;4.098;2023-03-01T00:08:32;4.47;;;4.27;;
14528;SDS011;7351;51.194;4.098;2023-03-01T00:11:00;5.23;;;4.83;;
14528;SDS011;7351;51.194;4.098;2023-03-01T00:13:28;4.60;;;4.30;;
14528;SDS011;7351;51.194;4.098;2023-03-01T00:15:55;4.90;;;4.60;;
14528;SDS011;7351;51.194;4.098;2023-03-01T00:18:22;4.93;;;4.53;;
14528;SDS011;7351;51.194;4.098;2023-03-01T00:20:50;5.27;;;4.90;;
14528;SDS011;7351;51.194;4.098;2023-03-01T00:23:17;4.50;;;4.20;;
14528;SDS011;7351;51.194;4.098;2023-03-01T00:25:45;4.60;;;4.30;;
14528;SDS011;7351;51.194;4.098;2023-03-01T00:28:12;4.87;;;4.57;;
14528;SDS011;7351;51.194;4.098;2023-03-01T00:30:39;4.87;;;4.57;;
14528;SDS011;7351;51.194;4.098;2023-03-01T00:33:06;6.07;;;5.60;;
14528;SDS011;7351;51.194;4.098;2023-03-01T00:35:34;5.43;;;4.73;;
14528;SDS011;7351;51.194;4.098;2023-03-01T00:38:01;6.30;;;5.70;;
14528;SDS011;7351;51.194;4.098;2023-03-01T00:40:29;5.13;;;4.70;;
14528;SDS011;7351;51.194;4.098;2023-03-01T00:42:59;5.33;;;4.93;;
14528;SDS011;7351;51.194;4.098;2023-03-01T00:45:27;4.63;;;4.33;;
14528;SDS011;7351;51.194;4.098;2023-03-01T00:47:55;4.93;;;4.63;;
14528;SDS011;7351;51.194;4.098;2023-03-01T00:50:23;5.00;;;4.60;;
14528;SDS011;7351;51.194;4.098;2023-03-01T00:52:52;5.27;;;4.87;;
14528;SDS011;7351;51.194;4.098;2023-03-01T00:55:19;6.07;;;5.67;;
14528;SDS011;7351;51.194;4.098;2023-03-01T00:57:46;5.53;;;5.13;;
14528;SDS011;7351;51.194;4.098;2023-03-01T01:00:15;4.93;;;4.53;;
14528;SDS011;7351;51.194;4.098;2023-03-01T01:02:43;4.40;;;4.20;;
14528;SDS011;7351;51.194;4.098;2023-03-01T01:05:11;4.90;;;4.60;;
14528;SDS011;7351;51.194;4.098;2023-03-01T01:07:38;4.47;;;4.17;;
14528;SDS011;7351;51.194;4.098;2023-03-01T01:10:05;5.30;;;4.90;;
14528;SDS011;7351;51.194;4.098;2023-03-01T01:12:33;5.80;;;5.20;;
14528;SDS011;7351;51.194;4.098;2023-03-01T01:15:00;5.33;;;4.87;;
14528;SDS011;7351;51.194;4.098;2023-03-01T01:17:28;4.60;;;4.30;;
14528;SDS011;7351;51.194;4.098;2023-03-01T01:19:55;4.80;;;4.47;;
14528;SDS011;7351;51.194;4.098;2023-03-01T01:22:22;4.80;;;4.50;;
14528;SDS011;7351;51.194;4.098;2023-03-01T01:24:49;5.43;;;4.93;;
14528;SDS011;7351;51.194;4.098;2023-03-01T01:27:16;5.47;;;5.07;;
14528;SDS011;7351;51.194;4.098;2023-03-01T01:29:43;5.17;;;4.80;;
14528;SDS011;7351;51.194;4.098;2023-03-01T01:32:10;5.87;;;5.37;;
14528;SDS011;7351;51.194;4.098;2023-03-01T01:34:38;5.37;;;4.90;;
14528;SDS011;7351;51.194;4.098;2023-03-01T01:37:05;5.07;;;4.67;;
14528;SDS011;7351;51.194;4.098;2023-03-01T01:39:33;5.87;;;4.77;;
14528;SDS011;7351;51.194;4.098;2023-03-01T01:42:00;5.00;;;4.70;;
14528;SDS011;7351;51.194;4.098;2023-03-01T01:44:27;5.50;;;5.10;;
14528;SDS011;7351;51.194;4.098;2023-03-01T01:46:55;5.03;;;4.63;;
14528;SDS011;7351;51.194;4.098;2023-03-01T01:49:27;4.73;;;4.43;;
14528;SDS011;7351;51.194;4.098;2023-03-01T01:52:02;5.80;;;5.40;;
14528;SDS011;7351;51.194;4.098;2023-03-01T01:54:37;4.77;;;4.37;;
14528;SDS011;7351;51.194;4.098;2023-03-01T01:57:09;5.77;;;5.37;;
14528;SDS011;7351;51.194;4.098;2023-03-01T01:59:39;6.67;;;5.00;;
14528;SDS011;7351;51.194;4.098;2023-03-01T02:02:09;5.93;;;5.43;;
14528;SDS011;7351;51.194;4.098;2023-03-01T02:04:37;5.20;;;4.80;;
14528;SDS011;7351;51.194;4.098;2023-03-01T02:07:06;5.17;;;4.70;;
14528;SDS011;7351;51.194;4.098;2023-03-01T02:09:38;5.67;;;5.27;;
14528;SDS011;7351;51.194;4.098;2023-03-01T02:12:05;5.33;;;5.00;;
14528;SDS011;7351;51.194;4.098;2023-03-01T02:14:33;6.20;;;5.20;;
14528;SDS011;7351;51.194;4.098;2023-03-01T02:17:00;4.57;;;4.20;;
14528;SDS011;7351;51.194;4.098;2023-03-01T02:19:30;5.03;;;4.53;;
14528;SDS011;7351;51.194;4.098;2023-03-01T02:22:10;4.93;;;4.63;;
14528;SDS011;7351;51.194;4.098;2023-03-01T02:24:47;4.87;;;4.43;;
14528;SDS011;7351;51.194;4.098;2023-03-01T02:27:22;4.97;;;4.57;;
14528;SDS011;7351;51.194;4.098;2023-03-01T02:29:59;4.70;;;4.40;;
14528;SDS011;7351;51.194;4.098;2023-03-01T02:32:26;5.20;;;4.80;;
14528;SDS011;7351;51.194;4.098;2023-03-01T02:34:53;7.10;;;5.07;;
14528;SDS011;7351;51.194;4.098;2023-03-01T02:37:21;5.30;;;5.00;;
14528;SDS011;7351;51.194;4.098;2023-03-01T02:39:51;4.73;;;4.43;;
14528;SDS011;7351;51.194;4.098;2023-03-01T02:42:25;4.43;;;4.13;;
14528;SDS011;7351;51.194;4.098;2023-03-01T02:44:56;5.70;;;5.30;;
14528;SDS011;7351;51.194;4.098;2023-03-01T02:47:25;5.67;;;5.20;;
14528;SDS011;7351;51.194;4.098;2023-03-01T02:49:52;6.43;;;4.83;;
14528;SDS011;7351;51.194;4.098;2023-03-01T02:52:34;5.70;;;5.20;;
14528;SDS011;7351;51.194;4.098;2023-03-01T02:55:10;5.20;;;4.90;;
14528;SDS011;7351;51.194;4.098;2023-03-01T02:57:39;6.20;;;5.73;;
14528;SDS011;7351;51.194;4.098;2023-03-01T03:00:10;5.90;;;5.40;;
14528;SDS011;7351;51.194;4.098;2023-03-01T03:02:44;5.67;;;5.27;;
14528;SDS011;7351;51.194;4.098;2023-03-01T03:05:13;4.83;;;4.43;;
14528;SDS011;7351;51.194;4.098;2023-03-01T03:07:42;5.40;;;5.10;;
14528;SDS011;7351;51.194;4.098;2023-03-01T03:10:11;4.63;;;4.27;;
14528;SDS011;7351;51.194;4.098;2023-03-01T03:12:39;5.13;;;4.73;;
14528;SDS011;7351;51.194;4.098;2023-03-01T03:15:07;5.87;;;5.47;;
14528;SDS011;7351;51.194;4.098;2023-03-01T03:17:38;5.47;;;5.07;;
14528;SDS011;7351;51.194;4.098;2023-03-01T03:20:06;5.50;;;5.20;;
14528;SDS011;7351;51.194;4.098;2023-03-01T03:22:36;5.50;;;5.10;;
14528;SDS011;7351;51.194;4.098;2023-03-01T03:25:05;4.90;;;4.53;;
14528;SDS011;7351;51.194;4.098;2023-03-01T03:27:35;5.43;;;5.10;;
14528;SDS011;7351;51.194;4.098;2023-03-01T03:30:03;5.47;;;5.07;;
14528;SDS011;7351;51.194;4.098;2023-03-01T03:32:35;6.13;;;5.73;;
14528;SDS011;7351;51.194;4.098;2023-03-01T03:35:02;5.20;;;4.93;;
14528;SDS011;7351;51.194;4.098;2023-03-01T03:37:34;5.50;;;5.00;;
14528;SDS011;7351;51.194;4.098;2023-03-01T03:40:19;5.00;;;4.50;;
14528;SDS011;7351;51.194;4.098;2023-03-01T03:42:46;5.23;;;4.93;;
14528;SDS011;7351;51.194;4.098;2023-03-01T03:45:13;5.30;;;4.90;;
14528;SDS011;7351;51.194;4.098;2023-03-01T03:47:42;6.73;;;6.13;;
14528;SDS011;7351;51.194;4.098;2023-03-01T03:50:10;5.93;;;5.47;;
14528;SDS011;7351;51.194;4.098;2023-03-01T03:52:37;6.37;;;5.87;;
14528;SDS011;7351;51.194;4.098;2023-03-01T03:55:05;5.43;;;4.93;;
14528;SDS011;7351;51.194;4.098;2023-03-01T03:57:36;5.50;;;5.10;;
14528;SDS011;7351;51.194;4.098;2023-03-01T04:00:03;5.23;;;4.73;;
14528;SDS011;7351;51.194;4.098;2023-03-01T04:02:37;5.73;;;5.23;;
14528;SDS011;7351;51.194;4.098;2023-03-01T04:05:07;5.80;;;4.43;;
14528;SDS011;7351;51.194;4.098;2023-03-01T04:07:35;6.03;;;5.67;;
14528;SDS011;7351;51.194;4.098;2023-03-01T04:10:03;6.03;;;5.63;;
14528;SDS011;7351;51.194;4.098;2023-03-01T04:12:31;5.53;;;5.13;;
14528;SDS011;7351;51.194;4.098;2023-03-01T04:14:59;6.33;;;5.73;;
14528;SDS011;7351;51.194;4.098;2023-03-01T04:17:26;5.57;;;5.17;;
14528;SDS011;7351;51.194;4.098;2023-03-01T04:19:53;5.47;;;5.07;;
14528;SDS011;7351;51.194;4.098;2023-03-01T04:22:21;6.23;;;5.80;;
14528;SDS011;7351;51.194;4.098;2023-03-01T04:24:54;6.23;;;5.83;;
14528;SDS011;7351;51.194;4.098;2023-03-01T04:27:21;6.40;;;5.80;;
14528;SDS011;7351;51.194;4.098;2023-03-01T04:29:48;7.03;;;5.97;;
14528;SDS011;7351;51.194;4.098;2023-03-01T04:32:15;6.03;;;5.53;;
14528;SDS011;7351;51.194;4.098;2023-03-01T04:34:43;6.20;;;5.73;;
14528;SDS011;7351;51.194;4.098;2023-03-01T04:37:10;5.63;;;5.23;;
14528;SDS011;7351;51.194;4.098;2023-03-01T04:39:38;5.07;;;4.77;;
14528;SDS011;7351;51.194;4.098;2023-03-01T04:42:10;5.20;;;4.80;;
14528;SDS011;7351;51.194;4.098;2023-03-01T04:44:37;5.53;;;5.10;;
14528;SDS011;7351;51.194;4.098;2023-03-01T04:47:04;6.10;;;5.70;;
14528;SDS011;7351;51.194;4.098;2023-03-01T04:49:31;6.23;;;5.73;;
14528;SDS011;7351;51.194;4.098;2023-03-01T04:51:58;5.50;;;5.10;;
14528;SDS011;7351;51.194;4.098;2023-03-01T04:54:27;5.90;;;5.47;;
14528;SDS011;7351;51.194;4.098;2023-03-01T04:56:55;6.87;;;6.37;;
14528;SDS011;7351;51.194;4.098;2023-03-01T04:59:22;6.43;;;5.93;;
14528;SDS011;7351;51.194;4.098;2023-03-01T05:01:49;4.83;;;4.53;;
14528;SDS011;7351;51.194;4.098;2023-03-01T05:04:16;4.67;;;4.37;;
14528;SDS011;7351;51.194;4.098;2023-03-01T05:06:44;6.20;;;4.63;;
14528;SDS011;7351;51.194;4.098;2023-03-01T05:09:11;4.93;;;4.60;;
14528;SDS011;7351;51.194;4.098;2023-03-01T05:11:38;5.60;;;4.50;;
14528;SDS011;7351;51.194;4.098;2023-03-01T05:14:06;5.33;;;4.83;;
14528;SDS011;7351;51.194;4.098;2023-03-01T05:16:34;5.33;;;4.93;;
14528;SDS011;7351;51.194;4.098;2023-03-01T05:19:02;6.70;;;5.00;;
14528;SDS011;7351;51.194;4.098;2023-03-01T05:21:36;4.37;;;4.07;;
14528;SDS011;7351;51.194;4.098;2023-03-01T05:24:23;4.50;;;4.20;;
14528;SDS011;7351;51.194;4.098;2023-03-01T05:26:50;4.90;;;4.13;;
14528;SDS011;7351;51.194;4.098;2023-03-01T05:31:50;8.63;;;5.07;;
14528;SDS011;7351;51.194;4.098;2023-03-01T05:34:18;9.20;;;5.10;;
14528;SDS011;7351;51.194;4.098;2023-03-01T05:36:48;12.97;;;5.10;;
14528;SDS011;7351;51.194;4.098;2023-03-01T05:39:24;8.47;;;5.40;;
14528;SDS011;7351;51.194;4.098;2023-03-01T05:41:52;8.37;;;4.73;;
14528;SDS011;7351;51.194;4.098;2023-03-01T05:44:21;6.07;;;5.13;;
14528;SDS011;7351;51.194;4.098;2023-03-01T05:46:48;5.20;;;4.73;;
14528;SDS011;7351;51.194;4.098;2023-03-01T05:49:16;5.63;;;5.10;;
14528;SDS011;7351;51.194;4.098;2023-03-01T05:51:45;4.97;;;4.60;;
14528;SDS011;7351;51.194;4.098;2023-03-01T05:54:14;6.07;;;5.43;;
14528;SDS011;7351;51.194;4.098;2023-03-01T05:56:41;7.97;;;4.67;;
14528;SDS011;7351;51.194;4.098;2023-03-01T05:59:09;7.47;;;4.90;;
14528;SDS011;7351;51.194;4.098;2023-03-01T06:01:37;5.50;;;5.03;;
14528;SDS011;7351;51.194;4.098;2023-03-01T06:04:05;7.50;;;5.40;;
14528;SDS011;7351;51.194;4.098;2023-03-01T06:06:33;6.23;;;5.57;;
14528;SDS011;7351;51.194;4.098;2023-03-01T06:09:02;5.93;;;5.37;;
14528;SDS011;7351;51.194;4.098;2023-03-01T06:11:29;5.77;;;5.20;;
14528;SDS011;7351;51.194;4.098;2023-03-01T06:13:56;5.77;;;5.37;;
14528;SDS011;7351;51.194;4.098;2023-03-01T06:16:23;5.80;;;5.40;;
14528;SDS011;7351;51.194;4.098;2023-03-01T06:18:51;6.00;;;5.60;;
14528;SDS011;7351;51.194;4.098;2023-03-01T06:21:18;5.20;;;4.80;;
14528;SDS011;7351;51.194;4.098;2023-03-01T06:23:45;6.30;;;5.67;;
14528;SDS011;7351;51.194;4.098;2023-03-01T06:26:12;6.33;;;5.47;;
14528;SDS011;7351;51.194;4.098;2023-03-01T06:28:39;9.83;;;5.80;;
14528;SDS011;7351;51.194;4.098;2023-03-01T06:31:06;5.30;;;4.87;;
14528;SDS011;7351;51.194;4.098;2023-03-01T06:33:34;6.03;;;5.63;;
14528;SDS011;7351;51.194;4.098;2023-03-01T06:36:03;7.27;;;5.47;;
14528;SDS011;7351;51.194;4.098;2023-03-01T06:38:31;5.93;;;5.13;;
14528;SDS011;7351;51.194;4.098;2023-03-01T06:40:58;6.67;;;5.97;;
14528;SDS011;7351;51.194;4.098;2023-03-01T06:43:26;5.27;;;4.87;;
14528;SDS011;7351;51.194;4.098;2023-03-01T06:45:53;4.97;;;4.60;;
14528;SDS011;7351;51.194;4.098;2023-03-01T06:48:20;6.10;;;5.60;;
14528;SDS011;7351;51.194;4.098;2023-03-01T06:50:47;6.43;;;5.30;;
14528;SDS011;7351;51.194;4.098;2023-03-01T06:53:15;5.23;;;4.83;;
14528;SDS011;7351;51.194;4.098;2023-03-01T06:55:42;5.17;;;4.73;;
14528;SDS011;7351;51.194;4.098;2023-03-01T06:58:09;4.33;;;4.07;;
14528;SDS011;7351;51.194;4.098;2023-03-01T07:00:36;5.63;;;5.00;;
14528;SDS011;7351;51.194;4.098;2023-03-01T07:03:05;5.10;;;4.80;;
14528;SDS011;7351;51.194;4.098;2023-03-01T07:05:33;5.20;;;4.90;;
14528;SDS011;7351;51.194;4.098;2023-03-01T07:08:00;6.00;;;4.87;;
14528;SDS011;7351;51.194;4.098;2023-03-01T07:10:29;5.80;;;5.30;;
14528;SDS011;7351;51.194;4.098;2023-03-01T07:12:56;5.60;;;5.20;;
14528;SDS011;7351;51.194;4.098;2023-03-01T07:15:24;5.73;;;5.33;;
14528;SDS011;7351;51.194;4.098;2023-03-01T07:17:52;5.27;;;4.93;;
14528;SDS011;7351;51.194;4.098;2023-03-01T07:20:19;5.83;;;5.40;;
14528;SDS011;7351;51.194;4.098;2023-03-01T07:22:49;5.97;;;5.57;;
14528;SDS011;7351;51.194;4.098;2023-03-01T07:25:16;5.50;;;4.97;;
14528;SDS011;7351;51.194;4.098;2023-03-01T07:27:45;5.93;;;5.43;;
14528;SDS011;7351;51.194;4.098;2023-03-01T07:30:16;5.60;;;5.20;;
14528;SDS011;7351;51.194;4.098;2023-03-01T07:32:43;5.30;;;5.00;;
14528;SDS011;7351;51.194;4.098;2023-03-01T07:35:10;5.70;;;5.20;;
14528;SDS011;7351;51.194;4.098;2023-03-01T07:37:37;5.23;;;4.83;;
14528;SDS011;7351;51.194;4.098;2023-03-01T07:40:05;5.73;;;5.33;;
14528;SDS011;7351;51.194;4.098;2023-03-01T07:42:33;6.17;;;5.67;;
14528;SDS011;7351;51.194;4.098;2023-03-01T07:45:02;5.00;;;4.70;;
14528;SDS011;7351;51.194;4.098;2023-03-01T07:47:29;5.80;;;5.30;;
14528;SDS011;7351;51.194;4.098;2023-03-01T07:49:56;5.53;;;5.13;;
14528;SDS011;7351;51.194;4.098;2023-03-01T07:52:23;6.20;;;5.77;;
14528;SDS011;7351;51.194;4.098;2023-03-01T07:54:50;5.80;;;4.90;;
14528;SDS011;7351;51.194;4.098;2023-03-01T07:57:17;5.90;;;5.33;;
14528;SDS011;7351;51.194;4.098;2023-03-01T07:59:44;5.20;;;4.90;;
14528;SDS011;7351;51.194;4.098;2023-03-01T08:02:12;5.63;;;5.23;;
14528;SDS011;7351;51.194;4.098;2023-03-01T08:04:40;5.33;;;4.93;;
14528;SDS011;7351;51.194;4.098;2023-03-01T08:07:07;5.20;;;4.50;;
14528;SDS011;7351;51.194;4.098;2023-03-01T08:09:34;5.53;;;5.00;;
14528;SDS011;7351;51.194;4.098;2023-03-01T08:12:02;5.63;;;5.23;;
14528;SDS011;7351;51.194;4.098;2023-03-01T08:14:29;5.50;;;5.10;;
14528;SDS011;7351;51.194;4.098;2023-03-01T08:16:56;5.03;;;4.63;;
14528;SDS011;7351;51.194;4.098;2023-03-01T08:19:25;5.47;;;4.97;;
14528;SDS011;7351;51.194;4.098;2023-03-01T08:21:53;6.47;;;5.87;;
14528;SDS011;7351;51.194;4.098;2023-03-01T08:24:20;5.93;;;5.20;;
14528;SDS011;7351;51.194;4.098;2023-03-01T08:26:47;7.63;;;5.90;;
14528;SDS011;7351;51.194;4.098;2023-03-01T08:29:14;5.97;;;5.57;;
14528;SDS011;7351;51.194;4.098;2023-03-01T08:31:41;5.63;;;5.20;;
14528;SDS011;7351;51.194;4.098;2023-03-01T08:34:10;5.73;;;5.33;;
14528;SDS011;7351;51.194;4.098;2023-03-01T08:36:40;5.70;;;5.20;;
14528;SDS011;7351;51.194;4.098;2023-03-01T08:39:09;5.73;;;5.23;;
14528;SDS011;7351;51.194;4.098;2023-03-01T08:41:38;7.47;;;5.13;;
14528;SDS011;7351;51.194;4.098;2023-03-01T08:44:05;6.40;;;5.80;;
14528;SDS011;7351;51.194;4.098;2023-03-01T08:46:34;8.20;;;6.13;;
14528;SDS011;7351;51.194;4.098;2023-03-01T08:49:03;6.17;;;5.43;;
14528;SDS011;7351;51.194;4.098;2023-03-01T08:51:30;6.20;;;5.70;;
14528;SDS011;7351;51.194;4.098;2023-03-01T08:54:03;6.87;;;5.80;;
14528;SDS011;7351;51.194;4.098;2023-03-01T08:56:30;6.80;;;4.80;;
14528;SDS011;7351;51.194;4.098;2023-03-01T08:58:57;5.30;;;4.80;;
14528;SDS011;7351;51.194;4.098;2023-03-01T09:01:24;5.20;;;4.80;;
14528;SDS011;7351;51.194;4.098;2023-03-01T09:03:51;7.80;;;5.50;;
14528;SDS011;7351;51.194;4.098;2023-03-01T09:06:18;5.70;;;5.20;;
14528;SDS011;7351;51.194;4.098;2023-03-01T09:08:46;6.30;;;5.27;;
14528;SDS011;7351;51.194;4.098;2023-03-01T09:11:16;6.53;;;6.03;;
14528;SDS011;7351;51.194;4.098;2023-03-01T09:13:46;5.83;;;5.07;;
14528;SDS011;7351;51.194;4.098;2023-03-01T09:16:14;5.50;;;5.10;;
14528;SDS011;7351;51.194;4.098;2023-03-01T09:18:42;7.13;;;6.07;;
14528;SDS011;7351;51.194;4.098;2023-03-01T09:21:12;5.03;;;4.57;;
14528;SDS011;7351;51.194;4.098;2023-03-01T09:23:41;6.73;;;5.10;;
14528;SDS011;7351;51.194;4.098;2023-03-01T09:26:10;5.40;;;4.90;;
14528;SDS011;7351;51.194;4.098;2023-03-01T09:28:40;5.63;;;5.23;;
14528;SDS011;7351;51.194;4.098;2023-03-01T09:31:07;5.30;;;4.90;;
14528;SDS011;7351;51.194;4.098;2023-03-01T09:33:34;6.07;;;5.47;;
14528;SDS011;7351;51.194;4.098;2023-03-01T09:36:01;10.20;;;6.10;;
14528;SDS011;7351;51.194;4.098;2023-03-01T09:38:30;5.57;;;5.07;;
14528;SDS011;7351;51.194;4.098;2023-03-01T09:40:57;5.20;;;4.80;;
14528;SDS011;7351;51.194;4.098;2023-03-01T09:43:25;4.70;;;4.40;;
14528;SDS011;7351;51.194;4.098;2023-03-01T09:45:59;5.50;;;5.10;;
14528;SDS011;7351;51.194;4.098;2023-03-01T09:48:33;5.30;;;4.90;;
14528;SDS011;7351;51.194;4.098;2023-03-01T09:51:06;4.90;;;4.50;;
14528;SDS011;7351;51.194;4.098;2023-03-01T09:53:38;5.33;;;4.83;;
14528;SDS011;7351;51.194;4.098;2023-03-01T09:56:09;5.93;;;5.43;;
14528;SDS011;7351;51.194;4.098;2023-03-01T09:58:46;5.17;;;4.77;;
14528;SDS011;7351;51.194;4.098;2023-03-01T10:01:26;4.87;;;4.40;;
14528;SDS011;7351;51.194;4.098;2023-03-01T10:04:00;5.80;;;5.30;;
14528;SDS011;7351;51.194;4.098;2023-03-01T10:06:35;5.50;;;5.10;;
14528;SDS011;7351;51.194;4.098;2023-03-01T10:09:02;5.20;;;4.80;;
14528;SDS011;7351;51.194;4.098;2023-03-01T10:11:35;4.90;;;4.60;;
14528;SDS011;7351;51.194;4.098;2023-03-01T10:14:05;4.20;;;3.90;;
14528;SDS011;7351;51.194;4.098;2023-03-01T10:16:43;4.67;;;4.37;;
14528;SDS011;7351;51.194;4.098;2023-03-01T10:19:17;5.30;;;4.90;;
14528;SDS011;7351;51.194;4.098;2023-03-01T10:21:49;4.47;;;4.17;;
14528;SDS011;7351;51.194;4.098;2023-03-01T10:24:18;5.67;;;4.40;;
14528;SDS011;7351;51.194;4.098;2023-03-01T10:26:47;4.90;;;4.50;;
14528;SDS011;7351;51.194;4.098;2023-03-01T10:29:20;5.30;;;4.80;;
14528;SDS011;7351;51.194;4.098;2023-03-01T10:31:53;4.43;;;4.10;;
14528;SDS011;7351;51.194;4.098;2023-03-01T10:34:21;4.87;;;4.57;;
14528;SDS011;7351;51.194;4.098;2023-03-01T10:36:55;5.40;;;5.00;;
14528;SDS011;7351;51.194;4.098;2023-03-01T10:39:24;4.50;;;4.20;;
14528;SDS011;7351;51.194;4.098;2023-03-01T10:41:54;4.67;;;4.33;;
14528;SDS011;7351;51.194;4.098;2023-03-01T10:44:39;5.43;;;4.97;;
14528;SDS011;7351;51.194;4.098;2023-03-01T10:47:16;5.20;;;4.57;;
14528;SDS011;7351;51.194;4.098;2023-03-01T10:49:53;4.73;;;4.33;;
14528;SDS011;7351;51.194;4.098;2023-03-01T10:52:26;5.30;;;4.77;;
14528;SDS011;7351;51.194;4.098;2023-03-01T10:54:55;4.23;;;3.93;;
14528;SDS011;7351;51.194;4.098;2023-03-01T10:57:31;3.80;;;3.53;;
14528;SDS011;7351;51.194;4.098;2023-03-01T11:00:19;4.73;;;4.33;;
14528;SDS011;7351;51.194;4.098;2023-03-01T11:02:51;4.83;;;4.43;;
14528;SDS011;7351;51.194;4.098;2023-03-01T11:05:33;4.10;;;3.70;;
14528;SDS011;7351;51.194;4.098;2023-03-01T11:08:00;4.23;;;4.00;;
14528;SDS011;7351;51.194;4.098;2023-03-01T11:10:30;5.23;;;4.50;;
14528;SDS011;7351;51.194;4.098;2023-03-01T11:13:08;3.87;;;3.67;;
14528;SDS011;7351;51.194;4.098;2023-03-01T11:15:41;4.07;;;3.77;;
14528;SDS011;7351;51.194;4.098;2023-03-01T11:18:19;4.27;;;3.97;;
14528;SDS011;7351;51.194;4.098;2023-03-01T11:20:47;3.60;;;3.40;;
14528;SDS011;7351;51.194;4.098;2023-03-01T11:23:17;5.23;;;3.93;;
14528;SDS011;7351;51.194;4.098;2023-03-01T11:25:47;3.87;;;3.57;;
14528;SDS011;7351;51.194;4.098;2023-03-01T11:28:21;4.60;;;4.20;;
14528;SDS011;7351;51.194;4.098;2023-03-01T11:30:51;4.80;;;4.40;;
14528;SDS011;7351;51.194;4.098;2023-03-01T11:33:30;4.30;;;3.90;;
14528;SDS011;7351;51.194;4.098;2023-03-01T11:36:07;4.27;;;3.90;;
14528;SDS011;7351;51.194;4.098;2023-03-01T11:38:41;4.83;;;4.43;;
14528;SDS011;7351;51.194;4.098;2023-03-01T11:41:11;3.80;;;3.50;;
14528;SDS011;7351;51.194;4.098;2023-03-01T11:43:44;4.20;;;3.87;;
14528;SDS011;7351;51.194;4.098;2023-03-01T11:49:19;4.97;;;4.10;;
14528;SDS011;7351;51.194;4.098;2023-03-01T11:52:08;5.13;;;4.73;;
14528;SDS011;7351;51.194;4.098;2023-03-01T11:54:47;3.70;;;3.40;;
14528;SDS011;7351;51.194;4.098;2023-03-01T11:57:28;4.80;;;4.30;;
14528;SDS011;7351;51.194;4.098;2023-03-01T12:00:18;4.50;;;4.17;;
14528;SDS011;7351;51.194;4.098;2023-03-01T12:03:12;4.03;;;3.70;;
14528;SDS011;7351;51.194;4.098;2023-03-01T12:05:53;4.67;;;4.13;;
14528;SDS011;7351;51.194;4.098;2023-03-01T12:08:33;4.13;;;3.87;;
14528;SDS011;7351;51.194;4.098;2023-03-01T12:11:06;4.37;;;4.07;;
14528;SDS011;7351;51.194;4.098;2023-03-01T12:14:00;3.60;;;3.40;;
14528;SDS011;7351;51.194;4.098;2023-03-01T12:16:40;4.57;;;4.23;;
14528;SDS011;7351;51.194;4.098;2023-03-01T12:19:32;3.53;;;3.27;;
14528;SDS011;7351;51.194;4.098;2023-03-01T12:22:12;4.30;;;3.97;;
14528;SDS011;7351;51.194;4.098;2023-03-01T12:24:59;4.47;;;4.17;;
14528;SDS011;7351;51.194;4.098;2023-03-01T12:30:52;4.67;;;4.27;;
14528;SDS011;7351;51.194;4.098;2023-03-01T12:33:42;3.77;;;3.47;;
14528;SDS011;7351;51.194;4.098;2023-03-01T12:39:22;3.70;;;3.40;;
14528;SDS011;7351;51.194;4.098;2023-03-01T12:42:01;3.40;;;3.10;;
14528;SDS011;7351;51.194;4.098;2023-03-01T12:44:41;4.20;;;3.90;;
14528;SDS011;7351;51.194;4.098;2023-03-01T12:47:25;4.20;;;3.80;;
14528;SDS011;7351;51.194;4.098;2023-03-01T12:50:01;3.50;;;3.27;;
14528;SDS011;7351;51.194;4.098;2023-03-01T12:52:33;3.63;;;3.43;;
14528;SDS011;7351;51.194;4.098;2023-03-01T12:55:08;4.77;;;4.37;;
14528;SDS011;7351;51.194;4.098;2023-03-01T12:57:48;3.93;;;3.63;;
14528;SDS011;7351;51.194;4.098;2023-03-01T13:00:24;3.90;;;3.60;;
14528;SDS011;7351;51.194;4.098;2023-03-01T13:02:58;5.57;;;3.77;;
14528;SDS011;7351;51.194;4.098;2023-03-01T13:05:31;4.13;;;3.63;;
14528;SDS011;7351;51.194;4.098;2023-03-01T13:08:07;3.47;;;3.17;;
14528;SDS011;7351;51.194;4.098;2023-03-01T13:10:40;3.43;;;3.13;;
14528;SDS011;7351;51.194;4.098;2023-03-01T13:13:14;3.77;;;3.47;;
14528;SDS011;7351;51.194;4.098;2023-03-01T13:15:46;4.40;;;4.00;;
14528;SDS011;7351;51.194;4.098;2023-03-01T13:18:32;5.07;;;3.50;;
14528;SDS011;7351;51.194;4.098;2023-03-01T13:21:00;4.37;;;3.63;;
14528;SDS011;7351;51.194;4.098;2023-03-01T13:23:30;3.63;;;3.20;;
14528;SDS011;7351;51.194;4.098;2023-03-01T13:26:02;5.17;;;3.67;;
14528;SDS011;7351;51.194;4.098;2023-03-01T13:28:37;4.23;;;3.63;;
14528;SDS011;7351;51.194;4.098;2023-03-01T13:31:07;3.97;;;3.63;;
14528;SDS011;7351;51.194;4.098;2023-03-01T13:33:40;3.57;;;2.83;;
14528;SDS011;7351;51.194;4.098;2023-03-01T13:36:09;8.03;;;3.17;;
14528;SDS011;7351;51.194;4.098;2023-03-01T13:38:41;3.63;;;3.43;;
14528;SDS011;7351;51.194;4.098;2023-03-01T13:41:14;3.97;;;3.60;;
14528;SDS011;7351;51.194;4.098;2023-03-01T13:43:42;3.93;;;3.63;;
14528;SDS011;7351;51.194;4.098;2023-03-01T13:46:15;3.47;;;3.17;;
14528;SDS011;7351;51.194;4.098;2023-03-01T13:48:44;4.47;;;3.40;;
14528;SDS011;7351;51.194;4.098;2023-03-01T13:51:15;4.17;;;3.77;;
14528;SDS011;7351;51.194;4.098;2023-03-01T13:53:42;3.77;;;3.47;;
14528;SDS011;7351;51.194;4.098;2023-03-01T13:56:15;3.43;;;3.17;;
14528;SDS011;7351;51.194;4.098;2023-03-01T13:58:46;3.73;;;3.53;;
14528;SDS011;7351;51.194;4.098;2023-03-01T14:01:23;3.83;;;3.53;;
14528;SDS011;7351;51.194;4.098;2023-03-01T14:03:51;3.53;;;3.23;;
14528;SDS011;7351;51.194;4.098;2023-03-01T14:06:20;4.77;;;3.80;;
14528;SDS011;7351;51.194;4.098;2023-03-01T14:08:49;3.87;;;3.57;;
14528;SDS011;7351;51.194;4.098;2023-03-01T14:14:34;4.23;;;3.80;;
14528;SDS011;7351;51.194;4.098;2023-03-01T14:17:15;3.50;;;3.30;;
14528;SDS011;7351;51.194;4.098;2023-03-01T14:20:00;3.70;;;3.40;;
14528;SDS011;7351;51.194;4.098;2023-03-01T14:22:31;3.57;;;3.20;;
14528;SDS011;7351;51.194;4.098;2023-03-01T14:25:01;4.70;;;3.83;;
14528;SDS011;7351;51.194;4.098;2023-03-01T14:27:33;6.23;;;3.90;;
14528;SDS011;7351;51.194;4.098;2023-03-01T14:30:10;3.60;;;3.30;;
14528;SDS011;7351;51.194;4.098;2023-03-01T14:32:40;4.67;;;3.87;;
14528;SDS011;7351;51.194;4.098;2023-03-01T14:35:18;3.93;;;2.97;;
14528;SDS011;7351;51.194;4.098;2023-03-01T14:37:46;3.63;;;3.23;;
14528;SDS011;7351;51.194;4.098;2023-03-01T14:40:21;3.80;;;3.60;;
14528;SDS011;7351;51.194;4.098;2023-03-01T14:42:52;3.40;;;3.20;;
14528;SDS011;7351;51.194;4.098;2023-03-01T14:45:20;3.93;;;3.63;;
14528;SDS011;7351;51.194;4.098;2023-03-01T14:47:50;3.90;;;3.57;;
14528;SDS011;7351;51.194;4.098;2023-03-01T14:50:22;3.60;;;3.30;;
14528;SDS011;7351;51.194;4.098;2023-03-01T14:52:53;3.73;;;3.43;;
14528;SDS011;7351;51.194;4.098;2023-03-01T14:55:21;4.13;;;3.80;;
14528;SDS011;7351;51.194;4.098;2023-03-01T14:57:54;3.37;;;3.17;;
14528;SDS011;7351;51.194;4.098;2023-03-01T15:00:23;4.67;;;3.50;;
14528;SDS011;7351;51.194;4.098;2023-03-01T15:02:53;3.83;;;3.53;;
14528;SDS011;7351;51.194;4.098;2023-03-01T15:05:23;5.37;;;3.90;;
14528;SDS011;7351;51.194;4.098;2023-03-01T15:07:53;3.90;;;3.40;;
14528;SDS011;7351;51.194;4.098;2023-03-01T15:10:22;3.57;;;3.30;;
14528;SDS011;7351;51.194;4.098;2023-03-01T15:12:50;3.37;;;3.17;;
14528;SDS011;7351;51.194;4.098;2023-03-01T15:18:14;3.63;;;3.33;;
14528;SDS011;7351;51.194;4.098;2023-03-01T15:20:44;3.60;;;3.40;;
14528;SDS011;7351;51.194;4.098;2023-03-01T15:23:20;3.57;;;3.30;;
14528;SDS011;7351;51.194;4.098;2023-03-01T15:25:49;4.33;;;4.00;;
14528;SDS011;7351;51.194;4.098;2023-03-01T15:28:22;3.30;;;3.10;;
14528;SDS011;7351;51.194;4.098;2023-03-01T15:30:57;2.77;;;2.57;;
14528;SDS011;7351;51.194;4.098;2023-03-01T15:33:29;3.23;;;3.00;;
14528;SDS011;7351;51.194;4.098;2023-03-01T15:35:58;4.27;;;4.00;;
14528;SDS011;7351;51.194;4.098;2023-03-01T15:38:27;3.63;;;3.33;;